Meteo

Meteo


Dettagli e Storico

Webcam

Webcam in aeroporto – Aggiornata ogni minuto

Osservatorio Meteorologico Cocomaro di Cona – Ferrara

NOAA IMAGE

NOAA

Powerd by MEEO S.r.l.

METAR

Aviation Digital Data Service (ADDS)

Output produced by METARs form (1540 UTC 24 September 2017)
found at http://www.aviationweather.gov/adds/metars/
 

METAR text: LIPF 241455Z 04004KT 9999 FEW025 BKN080 18/15 Q1017 RMK
BKN VIS MIN 9999
Conditions at: LIPF
(FERRARA (AUT) , IT) observed 1455 UTC 24 September 2017
Temperature: 18.0°C (64°F)
Dewpoint: 15.0°C (59°F) [RH = 83%]
Pressure (altimeter): 30.03 inches Hg (1017.0 mb)
Winds: from the NE (40 degrees) at 5 MPH (4 knots; 2.1 m/s)
Visibility: 6 or more miles (10+ km)
Ceiling: 8000 feet AGL
Clouds: few clouds at 2500 feet AGL
broken clouds at 8000 feet AGL
Weather: no significant weather observed at this time

METAR text: LIPE 241520Z 11005KT 9999 SCT055 18/14 Q1018
Conditions at: LIPE
(BOLOGNA/BORGO (A, IT) observed 1520 UTC 24 September 2017
Temperature: 18.0°C (64°F)
Dewpoint: 14.0°C (57°F) [RH = 77%]
Pressure (altimeter): 30.06 inches Hg (1018.0 mb)
Winds: from the ESE (110 degrees) at 6 MPH (5 knots; 2.6 m/s)
Visibility: 6 or more miles (10+ km)
Ceiling: at least 12,000 feet AGL
Clouds: scattered clouds at 5500 feet AGL
Weather: no significant weather observed at this time

Forecast for: LIPE (BOLOGNA/BORGO (A, IT)
Text: TAF LIPE 241100Z 2412/2512 VRB05KT 9999 SCT030
Forecast period: 1200 UTC 24 September 2017 to 1200 UTC 25 September 2017
Forecast type: FROM: standard forecast or significant change
Winds: variable direction winds at 6 MPH (5 knots; 2.6 m/s)
Visibility: 6 or more miles (10+ km)
Clouds: scattered clouds at 3000 feet AGL
Weather: no significant weather forecast for this period
Text: TEMPO 2412/2416 TSRA
Forecast period: 1200 to 1600 UTC 24 September 2017
Forecast type: TEMPORARY: The following changes expected for less than half the time period
Weather: TSRA  (rain associated with thunderstorm(s))

METAR text: LIPX 241520Z 08007KT 040V120 9999 SHRA SCT030CB SCT040
20/13 Q1019
Conditions at: LIPX
(VILLAFRANCA(CV/M, IT) observed 1520 UTC 24 September 2017
Temperature: 20.0°C (68°F)
Dewpoint: 13.0°C (55°F) [RH = 64%]
Pressure (altimeter): 30.09 inches Hg (1019.0 mb)
Winds: from the E (80 degrees) at 8 MPH (7 knots; 3.6 m/s)
Visibility: 6 or more miles (10+ km)
Ceiling: at least 12,000 feet AGL
Clouds: scattered clouds at 3000 feet AGL
scattered clouds at 4000 feet AGL
Weather: SHRA  (rain showers)

Forecast for: LIPX (VILLAFRANCA(CV/M, IT)
Text: TAF LIPX 241428Z 2415/2424 VRB05KT 9999 SCT035
Forecast period: 1500 UTC 24 September 2017 to 0000 UTC 25 September 2017
Forecast type: FROM: standard forecast or significant change
Winds: variable direction winds at 6 MPH (5 knots; 2.6 m/s)
Visibility: 6 or more miles (10+ km)
Clouds: scattered clouds at 3500 feet AGL
Weather: no significant weather forecast for this period
Text: TEMPO 2415/2417 4000 TSRA
Forecast period: 1500 to 1700 UTC 24 September 2017
Forecast type: TEMPORARY: The following changes expected for less than half the time period
Visibility: 2.49 miles (4.01 km)
Weather: TSRA  (rain associated with thunderstorm(s))

METAR text: LIPZ 241520Z 04014KT 8000 RA SCT011 FEW015CB BKN055 16/15
Q1019 NOSIG
Conditions at: LIPZ
(VENEZIA/TESSERA , IT) observed 1520 UTC 24 September 2017
Temperature: 16.0°C (61°F)
Dewpoint: 15.0°C (59°F) [RH = 94%]
Pressure (altimeter): 30.09 inches Hg (1019.0 mb)
Winds: from the NE (40 degrees) at 16 MPH (14 knots; 7.3 m/s)
Visibility: 5 miles (8 km)
Ceiling: 5500 feet AGL
Clouds: scattered clouds at 1100 feet AGL
few clouds at 1500 feet AGL
broken clouds at 5500 feet AGL
Weather: RA  (rain)

Forecast for: LIPZ (VENEZIA/TESSERA , IT)
Text: TAF LIPZ 241100Z 2412/2518 04014KT 9999 SCT025 BKN040
Forecast period: 1200 UTC 24 September 2017 to 1800 UTC 25 September 2017
Forecast type: FROM: standard forecast or significant change
Winds: from the NE (40 degrees) at 16 MPH (14 knots; 7.3 m/s)
Visibility: 6 or more miles (10+ km)
Ceiling: 4000 feet AGL
Clouds: scattered clouds at 2500 feet AGL
broken clouds at 4000 feet AGL
Weather: no significant weather forecast for this period
Text: TEMPO 2412/2416 TSRA
Forecast period: 1200 to 1600 UTC 24 September 2017
Forecast type: TEMPORARY: The following changes expected for less than half the time period
Weather: TSRA  (rain associated with thunderstorm(s))